createdAt,value
2023-05-19T00:02:09.472Z,101500.41
2023-05-19T00:04:40.590Z,101501.19
2023-05-19T00:07:11.468Z,101497.59
2023-05-19T00:09:38.483Z,101512.22
2023-05-19T00:12:05.654Z,101504.88
2023-05-19T00:14:32.693Z,101498.13
2023-05-19T00:17:01.988Z,101504.97
2023-05-19T00:19:32.354Z,101494.66
2023-05-19T00:21:59.323Z,101498.47
2023-05-19T00:24:26.094Z,101503.97
2023-05-19T00:26:52.809Z,101498.69
2023-05-19T00:29:19.564Z,101500.44
2023-05-19T00:31:46.513Z,101498.34
2023-05-19T00:34:13.516Z,101498.63
2023-05-19T00:36:40.471Z,101496.53
2023-05-19T00:39:07.370Z,101496.41
2023-05-19T00:41:36.439Z,101500.66
2023-05-19T00:44:03.609Z,101494.16
2023-05-19T00:46:30.798Z,101503.75
2023-05-19T00:48:57.747Z,101507.88
2023-05-19T00:51:27.807Z,101506.88
2023-05-19T00:53:55.030Z,101493.59
2023-05-19T00:56:22.909Z,101493.84
2023-05-19T00:58:51.978Z,101496.56
2023-05-19T01:01:21.413Z,101499.81
2023-05-19T01:03:49.074Z,101496.28
2023-05-19T01:06:15.941Z,101500.69
2023-05-19T01:08:42.775Z,101498.41
2023-05-19T01:11:10.360Z,101504.63
2023-05-19T01:13:38.655Z,101501.94
2023-05-19T01:16:27.797Z,101511.97
2023-05-19T01:18:57.553Z,101510.72
2023-05-19T01:21:55.426Z,101512.41
2023-05-19T01:24:32.381Z,101510.84
2023-05-19T01:27:23.508Z,101509.44
2023-05-19T01:30:35.658Z,101510.72
2023-05-19T01:33:06.742Z,101510.88
2023-05-19T01:35:38.568Z,101504.78
2023-05-19T01:38:09.520Z,101508.47
2023-05-19T01:40:38.622Z,101511.44
2023-05-19T01:43:07.755Z,101513.41
2023-05-19T01:45:34.785Z,101514.53
2023-05-19T01:48:03.959Z,101512.25
2023-05-19T01:50:31.989Z,101506.75
2023-05-19T01:53:00.385Z,101508.84
2023-05-19T01:55:27.980Z,101505.31
2023-05-19T01:58:18.693Z,101503.19
2023-05-19T02:01:08.308Z,101509.69
2023-05-19T02:03:53.228Z,101501.28
2023-05-19T02:07:01.320Z,101516.88
2023-05-19T02:09:56.999Z,101521.16
2023-05-19T02:12:32.952Z,101524.16
2023-05-19T02:15:04.929Z,101528.19
2023-05-19T02:17:36.655Z,101523.19
2023-05-19T02:20:05.099Z,101532.91
2023-05-19T02:22:32.023Z,101532.84
2023-05-19T02:24:59.096Z,101531.63
2023-05-19T02:27:26.380Z,101535.28
2023-05-19T02:29:53.453Z,101532.28
2023-05-19T02:32:21.230Z,101536.97
2023-05-19T02:34:48.944Z,101533.66
2023-05-19T02:37:16.235Z,101534.09
2023-05-19T02:39:43.183Z,101531.09
2023-05-19T02:42:10.241Z,101526.13
2023-05-19T02:44:36.988Z,101526.25
2023-05-19T02:47:03.852Z,101535.09
2023-05-19T02:49:36.146Z,101534.13
2023-05-19T02:52:07.014Z,101533.00
2023-05-19T02:54:34.912Z,101532.41
2023-05-19T02:57:02.614Z,101530.84
2023-05-19T02:59:29.541Z,101543.34
2023-05-19T03:01:59.263Z,101536.81
2023-05-19T03:04:26.232Z,101540.81
2023-05-19T03:06:54.352Z,101540.53
2023-05-19T03:09:21.391Z,101542.38
2023-05-19T03:11:48.220Z,101540.25
2023-05-19T03:14:15.026Z,101540.59
2023-05-19T03:16:42.344Z,101539.25
2023-05-19T03:19:09.738Z,101541.31
2023-05-19T03:21:36.736Z,101538.06
2023-05-19T03:24:03.895Z,101544.72
2023-05-19T03:26:31.229Z,101548.47
2023-05-19T03:28:59.457Z,101551.38
2023-05-19T03:31:26.882Z,101553.09
2023-05-19T03:33:54.034Z,101554.81
2023-05-19T03:36:22.701Z,101554.16
2023-05-19T03:38:49.859Z,101550.81
2023-05-19T03:41:16.709Z,101550.31
2023-05-19T03:43:43.741Z,101548.84
2023-05-19T03:46:10.655Z,101553.31
2023-05-19T03:48:46.189Z,101560.16
2023-05-19T03:51:24.487Z,101566.75
2023-05-19T03:53:54.944Z,101565.88
2023-05-19T03:56:25.092Z,101562.34
2023-05-19T03:58:51.934Z,101563.56
2023-05-19T04:01:18.790Z,101556.78
2023-05-19T04:03:45.728Z,101562.63
2023-05-19T04:06:14.624Z,101563.34
2023-05-19T04:08:41.496Z,101564.50
2023-05-19T04:11:08.495Z,101562.34
2023-05-19T04:13:35.860Z,101559.44
2023-05-19T04:16:02.998Z,101554.66
2023-05-19T04:18:29.805Z,101557.44
2023-05-19T04:20:56.615Z,101565.47
2023-05-19T04:23:23.348Z,101563.59
2023-05-19T04:25:50.400Z,101573.06
2023-05-19T04:28:18.119Z,101569.84
2023-05-19T04:30:46.697Z,101578.84
2023-05-19T04:33:13.863Z,101579.09
2023-05-19T04:35:44.186Z,101581.44
2023-05-19T04:38:12.346Z,101590.31
2023-05-19T04:40:42.290Z,101585.97
2023-05-19T04:43:09.568Z,101588.69
2023-05-19T04:45:37.780Z,101592.59
2023-05-19T04:48:05.908Z,101591.28
2023-05-19T04:50:33.552Z,101599.22
2023-05-19T04:53:00.646Z,101599.69
2023-05-19T04:55:27.888Z,101591.59
2023-05-19T04:57:54.714Z,101603.31
2023-05-19T05:00:22.551Z,101605.72
2023-05-19T05:02:59.201Z,101604.63
2023-05-19T05:05:28.852Z,101602.41
2023-05-19T05:07:56.306Z,101605.63
2023-05-19T05:10:25.617Z,101588.63
2023-05-19T05:12:53.722Z,101601.22
2023-05-19T05:15:21.443Z,101601.31
2023-05-19T05:17:50.669Z,101605.78
2023-05-19T05:20:19.720Z,101601.81
2023-05-19T05:22:46.907Z,101607.94
2023-05-19T05:25:14.868Z,101611.22
2023-05-19T05:27:42.274Z,101611.75
2023-05-19T05:30:09.643Z,101607.28
2023-05-19T05:32:37.533Z,101614.66
2023-05-19T05:35:15.216Z,101617.69
2023-05-19T05:37:42.052Z,101613.56
2023-05-19T05:40:12.339Z,101622.22
2023-05-19T05:42:39.229Z,101626.25
2023-05-19T05:45:06.677Z,101621.66
2023-05-19T05:47:34.076Z,101621.44
2023-05-19T05:50:01.365Z,101628.69
2023-05-19T05:52:30.985Z,101619.00
2023-05-19T05:54:59.707Z,101626.94
2023-05-19T05:57:27.065Z,101620.09
2023-05-19T05:59:54.254Z,101626.38
2023-05-19T06:02:21.878Z,101626.06
2023-05-19T06:04:48.994Z,101630.13
2023-05-19T06:07:16.034Z,101642.69
2023-05-19T06:09:44.777Z,101642.81
2023-05-19T06:12:12.042Z,101634.66
2023-05-19T06:14:44.696Z,101642.50
2023-05-19T06:17:17.271Z,101642.88
2023-05-19T06:19:44.053Z,101642.16
2023-05-19T06:22:10.888Z,101647.16
2023-05-19T06:24:39.612Z,101651.66
2023-05-19T06:27:09.009Z,101652.09
2023-05-19T06:29:35.856Z,101652.09
2023-05-19T06:32:05.786Z,101657.69
2023-05-19T06:34:32.824Z,101655.84
2023-05-19T06:36:59.565Z,101661.34
2023-05-19T06:39:26.977Z,101665.47
2023-05-19T06:41:54.341Z,101676.47
2023-05-19T06:44:41.388Z,101671.84
2023-05-19T06:47:11.921Z,101680.31
2023-05-19T06:49:39.156Z,101676.78
2023-05-19T06:52:06.418Z,101679.81
2023-05-19T06:54:33.560Z,101685.00
2023-05-19T06:57:00.454Z,101681.84
2023-05-19T06:59:27.763Z,101688.03
2023-05-19T07:01:54.728Z,101690.81
2023-05-19T07:04:21.712Z,101688.19
2023-05-19T07:06:50.286Z,101692.31
2023-05-19T07:09:17.611Z,101692.22
2023-05-19T07:11:45.854Z,101703.97
2023-05-19T07:14:12.706Z,101705.97
2023-05-19T07:16:39.564Z,101706.69
2023-05-19T07:19:06.463Z,101705.88
2023-05-19T07:21:33.695Z,101709.16
2023-05-19T07:24:00.512Z,101711.41
2023-05-19T07:26:29.606Z,101716.97
2023-05-19T07:28:57.871Z,101711.56
2023-05-19T07:31:24.820Z,101718.50
2023-05-19T07:33:54.327Z,101720.50
2023-05-19T07:36:21.869Z,101728.31
2023-05-19T07:38:48.824Z,101729.69
2023-05-19T07:41:15.736Z,101727.00
2023-05-19T07:43:43.264Z,101732.22
2023-05-19T07:46:10.045Z,101728.38
2023-05-19T07:48:38.098Z,101733.38
2023-05-19T07:51:04.827Z,101729.16
2023-05-19T07:53:31.690Z,101735.03
2023-05-19T07:55:58.823Z,101739.59
2023-05-19T07:58:26.859Z,101735.50
2023-05-19T08:00:53.759Z,101733.84
2023-05-19T08:03:21.188Z,101738.91
2023-05-19T08:05:48.293Z,101732.53
2023-05-19T08:08:17.122Z,101728.00
2023-05-19T08:10:43.952Z,101727.94
2023-05-19T08:13:10.824Z,101727.38
2023-05-19T08:15:37.850Z,101722.97
2023-05-19T08:18:05.424Z,101737.72
2023-05-19T08:20:32.965Z,101736.03
2023-05-19T08:23:00.228Z,101737.47
2023-05-19T08:25:27.138Z,101725.88
2023-05-19T08:27:53.874Z,101731.72
2023-05-19T08:30:21.002Z,101726.22
2023-05-19T08:32:48.752Z,101717.19
2023-05-19T08:35:15.932Z,101725.13
2023-05-19T08:37:42.886Z,101725.31
2023-05-19T08:40:15.922Z,101731.31
2023-05-19T08:42:42.710Z,101732.41
2023-05-19T08:45:09.858Z,101728.94
2023-05-19T08:47:37.159Z,101723.69
2023-05-19T08:50:10.907Z,101732.09
2023-05-19T08:52:52.487Z,101728.56
2023-05-19T08:56:04.667Z,101735.94
2023-05-19T08:58:33.456Z,101726.00
2023-05-19T09:01:01.279Z,101725.44
2023-05-19T09:03:29.229Z,101731.41
2023-05-19T09:05:56.378Z,101727.94
2023-05-19T09:08:25.962Z,101728.41
2023-05-19T09:10:52.735Z,101731.97
2023-05-19T09:13:19.550Z,101728.78
2023-05-19T09:15:47.124Z,101741.34
2023-05-19T09:18:17.809Z,101743.84
2023-05-19T09:20:46.179Z,101737.19
2023-05-19T09:23:17.787Z,101740.00
2023-05-19T09:25:52.343Z,101748.81
2023-05-19T09:28:31.632Z,101744.97
2023-05-19T09:31:09.601Z,101750.38
2023-05-19T09:33:38.584Z,101754.81
2023-05-19T09:36:07.203Z,101759.16
2023-05-19T09:38:35.305Z,101766.81
2023-05-19T09:41:02.437Z,101773.75
2023-05-19T09:43:33.524Z,101768.34
2023-05-19T09:46:04.226Z,101766.44
2023-05-19T09:48:31.146Z,101780.03
2023-05-19T09:50:58.275Z,101781.34
2023-05-19T09:53:25.631Z,101776.03
2023-05-19T09:55:59.136Z,101781.63
2023-05-19T09:58:27.072Z,101788.41
2023-05-19T10:00:55.121Z,101784.38
2023-05-19T10:03:24.274Z,101785.09
2023-05-19T10:05:53.312Z,101782.53
2023-05-19T10:08:20.410Z,101787.50
2023-05-19T10:10:47.926Z,101794.88
2023-05-19T10:13:16.592Z,101787.25
2023-05-19T10:15:57.481Z,101793.69
2023-05-19T10:18:27.124Z,101782.94
2023-05-19T10:20:54.827Z,101798.00
2023-05-19T10:23:24.064Z,101799.84
2023-05-19T10:25:54.891Z,101794.66
2023-05-19T10:28:26.663Z,101795.53
2023-05-19T10:30:57.069Z,101795.56
2023-05-19T10:33:38.848Z,101792.34
2023-05-19T10:36:11.618Z,101799.25
2023-05-19T10:39:00.709Z,101801.81
2023-05-19T10:41:51.901Z,101799.13
2023-05-19T10:44:30.970Z,101802.81
2023-05-19T10:46:57.782Z,101807.81
2023-05-19T10:49:24.836Z,101802.91
2023-05-19T10:51:57.817Z,101814.44
2023-05-19T10:54:46.309Z,101815.41
2023-05-19T10:57:20.218Z,101813.81
2023-05-19T10:59:47.389Z,101808.56
2023-05-19T11:02:47.500Z,101807.56
2023-05-19T11:05:20.940Z,101806.59
2023-05-19T11:08:06.156Z,101816.53
2023-05-19T11:10:32.982Z,101819.03
2023-05-19T11:12:59.927Z,101817.59
2023-05-19T11:15:28.192Z,101811.84
2023-05-19T11:17:55.363Z,101811.16
2023-05-19T11:20:24.701Z,101807.56
2023-05-19T11:23:08.783Z,101803.03
2023-05-19T11:25:53.957Z,101795.66
2023-05-19T11:28:26.683Z,101799.00
2023-05-19T11:30:59.087Z,101806.56
2023-05-19T11:33:30.116Z,101789.66
2023-05-19T11:35:58.407Z,101799.81
2023-05-19T11:38:26.383Z,101805.56
2023-05-19T11:40:54.199Z,101805.63
2023-05-19T11:43:25.230Z,101806.53
2023-05-19T11:45:53.410Z,101796.41
2023-05-19T11:48:24.830Z,101792.97
2023-05-19T11:50:52.502Z,101804.19
2023-05-19T11:53:22.449Z,101803.88
2023-05-19T11:55:49.835Z,101801.84
2023-05-19T11:58:17.549Z,101810.50
2023-05-19T12:00:47.675Z,101810.00
2023-05-19T12:03:15.284Z,101812.75
2023-05-19T12:05:48.634Z,101825.28
2023-05-19T12:08:19.067Z,101810.53
2023-05-19T12:10:49.864Z,101813.03
2023-05-19T12:13:17.070Z,101819.13
2023-05-19T12:15:43.898Z,101816.56
2023-05-19T12:18:10.757Z,101824.19
2023-05-19T12:20:37.857Z,101827.94
2023-05-19T12:23:05.324Z,101819.63
2023-05-19T12:25:32.827Z,101829.59
2023-05-19T12:28:03.689Z,101830.75
2023-05-19T12:30:32.279Z,101827.56
2023-05-19T12:32:59.577Z,101831.97
2023-05-19T12:35:28.075Z,101824.28
2023-05-19T12:37:55.186Z,101830.84
2023-05-19T12:40:22.397Z,101836.03
2023-05-19T12:42:52.092Z,101838.44
2023-05-19T12:45:22.348Z,101838.03
2023-05-19T12:47:49.898Z,101839.81
2023-05-19T12:50:16.625Z,101839.50
2023-05-19T12:52:46.190Z,101845.03
2023-05-19T12:55:14.448Z,101848.69
2023-05-19T12:57:44.248Z,101845.69
2023-05-19T13:00:17.603Z,101850.22
2023-05-19T13:03:08.557Z,101850.81
2023-05-19T13:05:46.526Z,101851.69
2023-05-19T13:08:15.364Z,101851.69
2023-05-19T13:10:43.974Z,101851.50
2023-05-19T13:13:11.266Z,101847.63
2023-05-19T13:15:41.980Z,101851.34
2023-05-19T13:18:10.177Z,101854.38
2023-05-19T13:20:38.389Z,101849.69
2023-05-19T13:23:06.095Z,101846.59
2023-05-19T13:25:34.361Z,101846.94
2023-05-19T13:28:04.939Z,101844.75
2023-05-19T13:30:33.338Z,101852.22
2023-05-19T13:33:00.377Z,101857.50
2023-05-19T13:35:27.207Z,101849.22
2023-05-19T13:37:54.329Z,101845.97
2023-05-19T13:40:21.414Z,101857.03
2023-05-19T13:42:48.241Z,101862.19
2023-05-19T13:45:15.037Z,101861.25
2023-05-19T13:47:41.955Z,101863.44
2023-05-19T13:50:09.205Z,101862.56
2023-05-19T13:52:38.040Z,101862.44
2023-05-19T13:55:06.691Z,101865.19
2023-05-19T13:57:33.447Z,101864.47
2023-05-19T14:00:03.239Z,101875.44
2023-05-19T14:02:40.584Z,101872.22
2023-05-19T14:05:08.248Z,101861.31
2023-05-19T14:07:35.696Z,101870.09
2023-05-19T14:10:05.636Z,101873.44
2023-05-19T14:12:41.504Z,101875.38
2023-05-19T14:15:14.540Z,101871.41
2023-05-19T14:17:41.613Z,101875.50
2023-05-19T14:20:09.675Z,101874.38
2023-05-19T14:22:36.534Z,101872.53
2023-05-19T14:25:03.795Z,101870.81
2023-05-19T14:27:30.680Z,101870.31
2023-05-19T14:29:57.604Z,101866.72
2023-05-19T14:32:24.519Z,101869.97
2023-05-19T14:34:54.226Z,101862.31
2023-05-19T14:37:21.100Z,101858.69
2023-05-19T14:39:48.023Z,101866.75
2023-05-19T14:42:14.983Z,101862.81
2023-05-19T14:44:41.749Z,101867.19
2023-05-19T14:47:08.696Z,101864.72
2023-05-19T14:49:35.662Z,101872.09
2023-05-19T14:52:02.733Z,101861.25
2023-05-19T14:54:29.534Z,101870.44
2023-05-19T14:56:56.331Z,101864.91
2023-05-19T14:59:23.134Z,101871.47
2023-05-19T15:01:49.869Z,101870.56
2023-05-19T15:04:16.824Z,101869.22
2023-05-19T15:06:44.352Z,101874.03
2023-05-19T15:09:14.634Z,101864.72
2023-05-19T15:11:41.577Z,101867.19
2023-05-19T15:14:08.468Z,101865.84
2023-05-19T15:16:35.218Z,101877.53
2023-05-19T15:19:02.008Z,101871.00
2023-05-19T15:21:28.799Z,101872.84
2023-05-19T15:23:55.584Z,101867.19
2023-05-19T15:26:22.547Z,101864.56
2023-05-19T15:28:49.319Z,101861.25
2023-05-19T15:31:16.259Z,101860.16
2023-05-19T15:33:43.093Z,101868.84
2023-05-19T15:36:12.855Z,101860.44
2023-05-19T15:38:39.662Z,101864.69
2023-05-19T15:41:08.207Z,101879.44
2023-05-19T15:43:36.048Z,101876.91
2023-05-19T15:46:05.095Z,101872.09
2023-05-19T15:48:32.421Z,101866.00
2023-05-19T15:51:00.610Z,101870.88
2023-05-19T15:53:27.411Z,101868.19
2023-05-19T15:55:54.331Z,101870.78
2023-05-19T15:58:21.171Z,101875.09
2023-05-19T16:00:47.996Z,101876.97
2023-05-19T16:03:14.935Z,101873.06
2023-05-19T16:05:41.697Z,101871.81
2023-05-19T16:08:08.893Z,101871.09
2023-05-19T16:10:36.291Z,101864.59
2023-05-19T16:13:03.094Z,101860.94
2023-05-19T16:15:29.901Z,101862.88
2023-05-19T16:17:57.330Z,101856.78
2023-05-19T16:20:27.880Z,101858.63
2023-05-19T16:22:55.495Z,101857.13
2023-05-19T16:25:22.614Z,101863.47
2023-05-19T16:27:49.709Z,101870.84
2023-05-19T16:30:16.827Z,101880.75
2023-05-19T16:32:43.645Z,101873.13
2023-05-19T16:35:10.647Z,101872.13
2023-05-19T16:37:37.654Z,101883.75
2023-05-19T16:40:05.001Z,101874.53
2023-05-19T16:42:32.396Z,101867.56
2023-05-19T16:44:59.092Z,101874.50
2023-05-19T16:47:25.861Z,101871.84
2023-05-19T16:49:52.757Z,101881.88
2023-05-19T16:52:20.159Z,101876.53
2023-05-19T16:54:46.999Z,101872.44
2023-05-19T16:57:16.623Z,101868.28
2023-05-19T16:59:43.379Z,101862.75
2023-05-19T17:02:10.355Z,101861.34
2023-05-19T17:04:37.497Z,101865.31
2023-05-19T17:07:04.542Z,101860.44
2023-05-19T17:09:31.381Z,101864.28
2023-05-19T17:11:58.261Z,101859.47
2023-05-19T17:14:25.024Z,101864.03
2023-05-19T17:16:52.776Z,101862.78
2023-05-19T17:19:19.615Z,101864.31
2023-05-19T17:21:46.455Z,101867.44
2023-05-19T17:24:13.186Z,101860.94
2023-05-19T17:26:40.104Z,101857.38
2023-05-19T17:29:06.887Z,101862.78
2023-05-19T17:31:34.653Z,101856.09
2023-05-19T17:34:01.368Z,101862.34
2023-05-19T17:36:31.262Z,101856.38
2023-05-19T17:38:58.144Z,101859.50
2023-05-19T17:41:24.879Z,101851.69
2023-05-19T17:43:51.688Z,101848.56
2023-05-19T17:46:18.426Z,101848.72
2023-05-19T17:48:45.189Z,101858.38
2023-05-19T17:51:12.056Z,101857.13
2023-05-19T17:53:39.105Z,101862.75
2023-05-19T17:56:08.899Z,101861.63
2023-05-19T17:58:36.499Z,101871.13
2023-05-19T18:01:03.402Z,101875.06
2023-05-19T18:03:30.895Z,101870.47
2023-05-19T18:05:59.037Z,101871.94
2023-05-19T18:08:26.824Z,101874.34
2023-05-19T18:10:55.547Z,101861.63
2023-05-19T18:13:23.689Z,101859.66
2023-05-19T18:15:50.668Z,101861.44
2023-05-19T18:18:17.511Z,101859.41
2023-05-19T18:20:45.720Z,101861.50
2023-05-19T18:23:12.537Z,101858.69
2023-05-19T18:25:39.370Z,101864.00
2023-05-19T18:28:06.456Z,101864.59
2023-05-19T18:30:33.534Z,101867.00
2023-05-19T18:33:03.559Z,101869.69
2023-05-19T18:35:30.582Z,101860.66
2023-05-19T18:37:57.444Z,101871.22
2023-05-19T18:40:24.639Z,101875.34
2023-05-19T18:42:51.378Z,101878.31
2023-05-19T18:45:18.604Z,101867.81
2023-05-19T18:47:45.819Z,101877.31
2023-05-19T18:50:13.176Z,101877.63
2023-05-19T18:52:40.475Z,101886.22
2023-05-19T18:55:07.818Z,101890.84
2023-05-19T18:57:34.601Z,101876.88
2023-05-19T19:00:01.563Z,101886.91
2023-05-19T19:02:28.459Z,101886.00
2023-05-19T19:04:55.361Z,101893.34
2023-05-19T19:07:25.538Z,101889.94
2023-05-19T19:09:52.374Z,101898.09
2023-05-19T19:12:20.298Z,101902.63
2023-05-19T19:14:47.416Z,101898.00
2023-05-19T19:17:14.239Z,101904.00
2023-05-19T19:19:41.319Z,101899.75
2023-05-19T19:22:08.216Z,101898.91
2023-05-19T19:24:35.942Z,101900.03
2023-05-19T19:27:02.756Z,101895.19
2023-05-19T19:29:29.909Z,101910.69
2023-05-19T19:31:57.032Z,101907.75
2023-05-19T19:34:23.892Z,101897.94
2023-05-19T19:36:50.810Z,101902.81
2023-05-19T19:39:17.608Z,101908.31
2023-05-19T19:41:44.385Z,101916.75
2023-05-19T19:44:11.133Z,101918.31
2023-05-19T19:46:38.014Z,101914.22
2023-05-19T19:49:05.045Z,101925.53
2023-05-19T19:51:32.074Z,101911.38
2023-05-19T19:53:59.147Z,101921.56
2023-05-19T19:56:27.637Z,101916.09
2023-05-19T19:58:59.045Z,101917.19
2023-05-19T20:01:27.899Z,101925.25
2023-05-19T20:03:56.047Z,101933.53
2023-05-19T20:06:23.143Z,101924.41
2023-05-19T20:08:49.923Z,101915.03
2023-05-19T20:11:16.956Z,101919.69
2023-05-19T20:13:43.637Z,101918.72
2023-05-19T20:16:10.567Z,101925.19
2023-05-19T20:18:37.497Z,101920.31
2023-05-19T20:21:04.343Z,101921.44
2023-05-19T20:23:31.107Z,101915.56
2023-05-19T20:26:10.986Z,101915.94
2023-05-19T20:28:39.594Z,101921.41
2023-05-19T20:31:06.504Z,101924.09
2023-05-19T20:33:33.284Z,101925.59
2023-05-19T20:35:59.997Z,101931.22
2023-05-19T20:38:26.759Z,101935.47
2023-05-19T20:40:54.402Z,101931.94
2023-05-19T20:43:21.383Z,101933.75
2023-05-19T20:45:48.456Z,101929.50
2023-05-19T20:48:17.748Z,101929.63
2023-05-19T20:50:44.489Z,101926.19
2023-05-19T20:53:11.380Z,101921.84
2023-05-19T20:55:39.156Z,101918.91
2023-05-19T20:58:06.266Z,101929.38
2023-05-19T21:00:33.526Z,101926.22
2023-05-19T21:03:00.860Z,101930.94
2023-05-19T21:05:27.728Z,101927.66
2023-05-19T21:07:54.768Z,101932.66
2023-05-19T21:10:21.663Z,101927.91
2023-05-19T21:12:48.945Z,101936.69
2023-05-19T21:15:15.772Z,101933.53
2023-05-19T21:17:42.629Z,101939.63
2023-05-19T21:20:10.039Z,101941.31
2023-05-19T21:22:36.917Z,101947.66
2023-05-19T21:25:04.118Z,101935.69
2023-05-19T21:27:32.970Z,101930.94
2023-05-19T21:30:00.300Z,101933.00
2023-05-19T21:32:29.925Z,101935.94
2023-05-19T21:34:56.822Z,101936.91
2023-05-19T21:37:26.743Z,101939.00
2023-05-19T21:39:53.574Z,101939.84
2023-05-19T21:42:20.554Z,101943.00
2023-05-19T21:44:47.324Z,101945.94
2023-05-19T21:47:14.028Z,101950.44
2023-05-19T21:49:40.822Z,101941.16
2023-05-19T21:52:07.921Z,101944.94
2023-05-19T21:54:35.283Z,101947.25
2023-05-19T21:57:04.605Z,101942.00
2023-05-19T21:59:31.457Z,101939.00
2023-05-19T22:01:58.610Z,101947.13
2023-05-19T22:04:25.659Z,101945.78
2023-05-19T22:06:52.505Z,101951.25
2023-05-19T22:09:19.334Z,101961.13
2023-05-19T22:11:48.507Z,101959.06
2023-05-19T22:14:17.886Z,101961.75
2023-05-19T22:16:44.806Z,101953.34
2023-05-19T22:19:11.793Z,101959.81
2023-05-19T22:21:38.641Z,101955.28
2023-05-19T22:24:05.518Z,101963.22
2023-05-19T22:26:32.365Z,101956.13
2023-05-19T22:29:02.540Z,101971.47
2023-05-19T22:31:29.695Z,101970.28
2023-05-19T22:33:56.531Z,101970.06
2023-05-19T22:36:23.807Z,101973.56
2023-05-19T22:38:50.657Z,101966.38
2023-05-19T22:41:17.388Z,101958.84
2023-05-19T22:43:44.461Z,101960.53
2023-05-19T22:46:11.367Z,101958.72
2023-05-19T22:48:41.270Z,101961.28
2023-05-19T22:51:08.142Z,101960.34
2023-05-19T22:53:34.846Z,101958.25
2023-05-19T22:56:01.596Z,101959.44
2023-05-19T22:58:28.409Z,101951.78
2023-05-19T23:00:55.183Z,101960.44
2023-05-19T23:03:27.905Z,101961.75
2023-05-19T23:05:54.717Z,101955.69
2023-05-19T23:08:22.123Z,101955.19
2023-05-19T23:10:48.948Z,101959.34
2023-05-19T23:13:15.757Z,101961.53
2023-05-19T23:15:44.350Z,101959.34
2023-05-19T23:18:11.616Z,101960.22
2023-05-19T23:20:38.426Z,101969.59
2023-05-19T23:23:05.202Z,101974.69
2023-05-19T23:25:32.411Z,101967.88
2023-05-19T23:27:59.302Z,101966.78
2023-05-19T23:30:30.462Z,101963.59
2023-05-19T23:32:57.392Z,101959.81
2023-05-19T23:35:24.374Z,101963.25
2023-05-19T23:37:51.166Z,101963.25
2023-05-19T23:40:18.081Z,101954.22
2023-05-19T23:42:45.059Z,101949.88
2023-05-19T23:45:11.964Z,101946.66
2023-05-19T23:47:38.897Z,101949.88
2023-05-19T23:50:06.722Z,101951.81
2023-05-19T23:52:33.455Z,101956.69
2023-05-19T23:55:00.535Z,101956.56
2023-05-19T23:57:27.417Z,101960.22
2023-05-19T23:59:54.393Z,101959.84
